Decoded Metar for KSRE (SEMINOLE in OK, USA) (IATA:SRE) | Meteo·Mobile Aviation Weather
aviador You're here:

KSRE Decoded Metar

SEMINOLE in OK, USA
Report Time2018-11-17 02:15:00
UTC Time2018-11-17 02:31:40
Flight Rules vfr VFR
WindCalm
Visibility9999 m
Phenomena:N/A
Clouds:N/A
Expected CloudBase > 2,800 ft AGL from Temp-Dew spread
CeilingNone
Temp10°C (ISA -3)
Dew Point03°C (62% RH)
AAT8.5°C
QNH1016 hPa
Density Alt676 ft
Elevation1,024 ft
Report Wrong Elevation
Raw Report
KSRE 170215Z AUTO 00000KT 10SM CLR 10/03 A3001 RMK AO2=

Extra information for KSRE:More info

Airport Information Weather charts Add Link Nearby Venues Social comments

AIRNAV info for KSRE